createdAt,value
2022-07-26T00:04:58.851Z,100.00
2022-07-26T00:10:00.932Z,100.00
2022-07-26T00:15:03.446Z,100.00
2022-07-26T00:20:05.921Z,100.00
2022-07-26T00:25:09.700Z,100.00
2022-07-26T00:30:12.102Z,100.00
2022-07-26T00:35:14.594Z,100.00
2022-07-26T00:40:16.895Z,100.00
2022-07-26T00:45:19.007Z,100.00
2022-07-26T00:50:20.882Z,100.00
2022-07-26T00:55:22.907Z,100.00
2022-07-26T01:00:28.623Z,100.00
2022-07-26T01:05:30.624Z,100.00
2022-07-26T01:10:32.630Z,100.00
2022-07-26T01:15:34.506Z,100.00
2022-07-26T01:20:36.717Z,100.00
2022-07-26T01:25:43.348Z,100.00
2022-07-26T01:30:45.690Z,100.00
2022-07-26T01:35:47.860Z,100.00
2022-07-26T01:40:49.725Z,100.00
2022-07-26T01:45:52.662Z,100.00
2022-07-26T01:50:54.655Z,100.00
2022-07-26T01:55:56.533Z,100.00
2022-07-26T02:00:58.329Z,100.00
2022-07-26T02:06:03.076Z,100.00
2022-07-26T02:11:05.491Z,100.00
2022-07-26T02:16:13.563Z,100.00
2022-07-26T02:21:15.484Z,100.00
2022-07-26T02:26:17.389Z,100.00
2022-07-26T02:31:19.292Z,100.00
2022-07-26T02:36:22.617Z,100.00
2022-07-26T02:41:24.849Z,100.00
2022-07-26T02:46:26.839Z,100.00
2022-07-26T02:51:29.126Z,100.00
2022-07-26T02:56:31.099Z,100.00
2022-07-26T03:01:35.353Z,100.00
2022-07-26T03:06:37.365Z,100.00
2022-07-26T03:11:39.215Z,100.00
2022-07-26T03:16:42.655Z,100.00
2022-07-26T03:21:44.448Z,100.00
2022-07-26T03:26:46.260Z,100.00
2022-07-26T03:31:48.302Z,100.00
2022-07-26T03:36:50.172Z,100.00
2022-07-26T03:41:52.066Z,100.00
2022-07-26T03:46:53.901Z,100.00
2022-07-26T03:51:55.781Z,100.00
2022-07-26T03:56:57.699Z,100.00
2022-07-26T04:01:59.616Z,100.00
2022-07-26T04:07:03.794Z,100.00
2022-07-26T04:12:06.263Z,100.00
2022-07-26T04:17:08.172Z,100.00
2022-07-26T04:22:10.089Z,100.00
2022-07-26T04:27:11.963Z,100.00
2022-07-26T04:32:13.761Z,100.00
2022-07-26T04:37:15.594Z,100.00
2022-07-26T04:42:17.506Z,100.00
2022-07-26T04:47:19.331Z,100.00
2022-07-26T04:52:21.166Z,100.00
2022-07-26T04:57:23.650Z,100.00
2022-07-26T05:02:25.670Z,100.00
2022-07-26T05:07:27.616Z,100.00
2022-07-26T05:12:29.440Z,100.00
2022-07-26T05:17:31.465Z,100.00
2022-07-26T05:22:37.911Z,100.00
2022-07-26T05:27:41.846Z,100.00
2022-07-26T05:32:43.717Z,100.00
2022-07-26T05:37:45.636Z,100.00
2022-07-26T05:42:47.507Z,100.00
2022-07-26T05:47:50.634Z,100.00
2022-07-26T05:52:52.550Z,100.00
2022-07-26T05:57:54.405Z,100.00
2022-07-26T06:02:56.351Z,100.00
2022-07-26T06:07:58.199Z,100.00
2022-07-26T06:13:00.764Z,100.00
2022-07-26T06:18:02.695Z,100.00
2022-07-26T06:23:05.161Z,100.00
2022-07-26T06:28:09.190Z,100.00
2022-07-26T06:33:11.872Z,100.00
2022-07-26T06:38:13.809Z,100.00
2022-07-26T06:43:15.697Z,100.00
2022-07-26T06:48:17.562Z,100.00
2022-07-26T06:53:19.530Z,100.00
2022-07-26T06:58:21.482Z,100.00
2022-07-26T07:03:23.447Z,100.00
2022-07-26T07:08:25.314Z,100.00
2022-07-26T07:13:27.167Z,100.00
2022-07-26T07:18:29.178Z,100.00
2022-07-26T07:23:30.980Z,100.00
2022-07-26T07:28:34.250Z,100.00
2022-07-26T07:33:52.600Z,100.00
2022-07-26T07:38:55.520Z,100.00
2022-07-26T07:43:58.505Z,100.00
2022-07-26T07:49:00.619Z,100.00
2022-07-26T07:54:05.672Z,100.00
2022-07-26T07:59:08.178Z,100.00
2022-07-26T08:04:10.248Z,100.00
2022-07-26T08:09:13.311Z,100.00
2022-07-26T08:14:15.428Z,100.00
2022-07-26T08:19:19.786Z,100.00
2022-07-26T08:24:24.484Z,100.00
2022-07-26T08:29:26.380Z,100.00
2022-07-26T08:34:28.248Z,100.00
2022-07-26T08:39:30.142Z,100.00
2022-07-26T08:44:32.008Z,100.00
2022-07-26T08:49:34.101Z,100.00
2022-07-26T08:54:36.258Z,100.00
2022-07-26T08:59:39.103Z,100.00
2022-07-26T09:04:45.088Z,100.00
2022-07-26T09:10:11.415Z,100.00
2022-07-26T09:15:20.546Z,100.00
2022-07-26T09:20:30.549Z,100.00
2022-07-26T09:25:44.246Z,100.00
2022-07-26T09:30:55.720Z,100.00
2022-07-26T09:36:05.314Z,100.00
2022-07-26T09:41:28.111Z,100.00
2022-07-26T09:46:32.207Z,100.00
2022-07-26T09:51:42.745Z,99.46
2022-07-26T09:56:52.158Z,100.00
2022-07-26T10:01:57.435Z,100.00
2022-07-26T10:06:59.414Z,96.19
2022-07-26T10:12:07.113Z,94.66
2022-07-26T10:17:29.036Z,90.22
2022-07-26T10:22:47.248Z,97.71
2022-07-26T10:27:58.942Z,98.35
2022-07-26T10:33:10.203Z,97.98
2022-07-26T10:38:23.591Z,84.43
2022-07-26T10:43:42.751Z,86.05
2022-07-26T10:49:04.348Z,83.54
2022-07-26T10:54:11.288Z,73.76
2022-07-26T10:59:13.517Z,78.96
2022-07-26T11:04:22.747Z,77.04
2022-07-26T11:09:34.188Z,81.93
2022-07-26T11:14:35.978Z,74.46
2022-07-26T11:19:41.220Z,74.80
2022-07-26T11:24:44.254Z,65.82
2022-07-26T11:29:52.292Z,67.33
2022-07-26T11:35:05.168Z,58.22
2022-07-26T11:40:07.469Z,63.36
2022-07-26T11:45:12.682Z,51.57
2022-07-26T11:50:22.244Z,51.13
2022-07-26T11:55:29.295Z,56.06
2022-07-26T12:00:31.180Z,51.48
2022-07-26T12:05:34.059Z,38.68
2022-07-26T12:10:36.283Z,34.62
2022-07-26T12:15:52.463Z,33.06
2022-07-26T12:21:03.619Z,29.11
2022-07-26T12:26:27.118Z,32.30
2022-07-26T12:31:34.203Z,33.35
2022-07-26T12:36:36.417Z,32.61
2022-07-26T12:41:40.346Z,28.86
2022-07-26T12:46:45.075Z,33.80
2022-07-26T12:51:47.058Z,34.07
2022-07-26T12:56:48.885Z,36.91
2022-07-26T13:01:51.515Z,40.38
2022-07-26T13:06:53.341Z,40.76
2022-07-26T13:11:56.422Z,42.57
2022-07-26T13:16:58.335Z,41.94
2022-07-26T13:22:01.574Z,36.54
2022-07-26T13:27:05.240Z,42.01
2022-07-26T13:32:07.179Z,45.89
2022-07-26T13:37:09.022Z,47.27
2022-07-26T13:42:11.377Z,46.30
2022-07-26T13:47:13.263Z,44.45
2022-07-26T13:52:16.766Z,40.25
2022-07-26T13:57:18.903Z,36.11
2022-07-26T14:02:20.932Z,35.31
2022-07-26T14:07:22.782Z,42.95
2022-07-26T14:12:24.602Z,43.00
2022-07-26T14:17:26.423Z,37.69
2022-07-26T14:22:28.324Z,36.71
2022-07-26T14:27:30.118Z,39.70
2022-07-26T14:32:32.115Z,41.06
2022-07-26T14:37:44.121Z,43.13
2022-07-26T14:42:47.392Z,35.69
2022-07-26T14:47:49.248Z,36.60
2022-07-26T14:52:51.121Z,32.88
2022-07-26T14:57:53.154Z,31.16
2022-07-26T15:02:55.092Z,36.59
2022-07-26T15:07:57.154Z,34.58
2022-07-26T15:13:00.722Z,37.74
2022-07-26T15:18:02.580Z,42.55
2022-07-26T15:23:06.229Z,50.64
2022-07-26T15:28:10.610Z,51.35
2022-07-26T15:33:14.454Z,51.66
2022-07-26T15:38:16.474Z,54.01
2022-07-26T15:43:23.933Z,67.40
2022-07-26T15:48:45.155Z,84.14
2022-07-26T15:53:47.048Z,92.25
2022-07-26T15:58:48.905Z,88.51
2022-07-26T16:03:50.862Z,90.47
2022-07-26T16:09:15.322Z,83.27
2022-07-26T16:14:15.367Z,88.11
2022-07-26T16:19:17.331Z,87.34
2022-07-26T16:24:19.396Z,100.00
2022-07-26T16:29:21.269Z,100.00
2022-07-26T16:34:23.279Z,100.00
2022-07-26T16:39:25.066Z,100.00
2022-07-26T16:44:26.885Z,100.00
2022-07-26T16:49:28.782Z,100.00
2022-07-26T16:54:31.287Z,100.00
2022-07-26T16:59:33.324Z,100.00
2022-07-26T17:04:36.199Z,100.00
2022-07-26T17:09:38.019Z,100.00
2022-07-26T17:14:39.843Z,100.00
2022-07-26T17:19:41.647Z,100.00
2022-07-26T17:24:43.459Z,100.00
2022-07-26T17:29:45.324Z,100.00
2022-07-26T17:34:47.989Z,100.00
2022-07-26T17:39:53.361Z,100.00
2022-07-26T17:44:56.117Z,100.00
2022-07-26T17:55:24.918Z,100.00
2022-07-26T18:00:28.832Z,100.00
2022-07-26T18:05:36.101Z,100.00
2022-07-26T18:10:41.376Z,100.00
2022-07-26T18:15:43.194Z,100.00
2022-07-26T18:20:45.631Z,100.00
2022-07-26T18:25:47.625Z,100.00
2022-07-26T18:30:49.466Z,100.00
2022-07-26T18:35:51.307Z,100.00
2022-07-26T18:40:53.265Z,100.00
2022-07-26T18:45:55.068Z,100.00
2022-07-26T18:50:57.055Z,100.00
2022-07-26T18:55:58.950Z,100.00
2022-07-26T19:01:00.751Z,100.00
2022-07-26T19:06:02.899Z,100.00
2022-07-26T19:11:04.941Z,100.00
2022-07-26T19:16:06.819Z,100.00
2022-07-26T19:21:08.684Z,100.00
2022-07-26T19:26:11.887Z,100.00
2022-07-26T19:31:13.736Z,100.00
2022-07-26T19:36:18.048Z,100.00
2022-07-26T19:41:28.074Z,100.00
2022-07-26T19:46:29.923Z,100.00
2022-07-26T19:51:32.233Z,100.00
2022-07-26T19:56:34.212Z,100.00
2022-07-26T20:01:36.109Z,100.00
2022-07-26T20:06:37.932Z,100.00
2022-07-26T20:11:39.955Z,100.00
2022-07-26T20:16:41.875Z,100.00
2022-07-26T20:21:49.894Z,100.00
2022-07-26T20:26:51.829Z,100.00
2022-07-26T20:31:53.650Z,100.00
2022-07-26T20:36:55.467Z,100.00
2022-07-26T20:41:57.385Z,100.00
2022-07-26T20:46:59.245Z,100.00
2022-07-26T20:52:04.403Z,100.00
2022-07-26T20:57:06.296Z,100.00
2022-07-26T21:02:08.813Z,100.00
2022-07-26T21:07:10.689Z,100.00
2022-07-26T21:12:12.505Z,100.00
2022-07-26T21:17:14.633Z,100.00
2022-07-26T21:22:16.499Z,100.00
2022-07-26T21:27:18.563Z,100.00
2022-07-26T21:32:20.412Z,100.00
2022-07-26T21:37:22.270Z,100.00
2022-07-26T21:42:26.669Z,100.00
2022-07-26T21:47:28.789Z,100.00
2022-07-26T21:52:30.583Z,100.00
2022-07-26T21:57:32.474Z,100.00
2022-07-26T22:02:34.768Z,100.00
2022-07-26T22:07:36.609Z,100.00
2022-07-26T22:12:38.392Z,100.00
2022-07-26T22:17:40.504Z,100.00
2022-07-26T22:22:42.340Z,100.00
2022-07-26T22:27:44.163Z,100.00
2022-07-26T22:32:46.083Z,100.00
2022-07-26T22:37:47.915Z,100.00
2022-07-26T22:42:50.101Z,100.00
2022-07-26T22:47:55.660Z,100.00
2022-07-26T22:52:58.578Z,100.00
2022-07-26T22:58:01.007Z,100.00
2022-07-26T23:03:02.804Z,100.00
2022-07-26T23:08:18.330Z,100.00
2022-07-26T23:13:26.819Z,100.00
2022-07-26T23:18:29.995Z,100.00
2022-07-26T23:23:32.069Z,100.00
2022-07-26T23:28:36.797Z,100.00
2022-07-26T23:33:51.585Z,100.00
2022-07-26T23:38:57.534Z,100.00
2022-07-26T23:43:59.387Z,100.00
2022-07-26T23:49:01.287Z,100.00
2022-07-26T23:54:03.232Z,100.00
2022-07-26T23:59:05.586Z,100.00
